PST,Max TemperatureF,Mean TemperatureF,Min TemperatureF,Max Dew PointF,MeanDew PointF,Min DewpointF,Max Humidity, Mean Humidity, Min Humidity, Max Sea Level PressureIn, Mean Sea Level PressureIn, Min Sea Level PressureIn, Max VisibilityMiles, Mean VisibilityMiles, Min VisibilityMiles, Max Wind SpeedMPH, Mean Wind SpeedMPH, Max Gust SpeedMPH,PrecipitationIn, CloudCover, Events, WindDirDegrees
2013-11-1,48,38,27,33,29,24,85,68,50,30.28,30.18,29.95,10,10,10,8,1,9,0.00,4,,294
2013-11-2,54,46,38,45,39,29,100,73,46,29.91,29.63,29.45,10,7,0,20,7,25,0.33,7,Fog-Rain,180
2013-11-3,47,38,28,34,30,23,92,69,45,30.06,29.95,29.82,10,10,10,15,4,20,T,6,Rain,301
2013-11-4,48,37,25,26,23,21,92,63,34,30.18,30.15,30.07,10,10,10,12,3,15,0.00,3,,293
2013-11-5,39,36,32,34,31,24,96,75,54,30.26,30.17,30.13,10,7,1,13,4,18,0.13,8,Snow,195
2013-11-6,40,37,34,34,32,29,92,81,70,30.42,30.36,30.27,10,9,6,8,2,9,0.02,8,Rain,244
2013-11-7,38,35,32,36,31,30,100,95,89,30.27,29.97,29.76,10,3,0,9,2,10,0.34,8,Fog-Rain-Snow,183
2013-11-8,49,39,28,37,34,26,92,77,61,30.20,30.05,29.92,10,10,10,10,3,13,0.00,3,,280
2013-11-9,39,31,23,35,30,21,100,88,76,30.28,30.22,30.16,10,8,2,6,1,8,0.06,6,Rain,307
2013-11-10,42,39,36,39,36,34,100,91,82,30.32,30.20,30.15,10,6,2,16,8,20,0.11,8,Rain,342
2013-11-11,46,41,35,37,36,33,92,81,70,30.42,30.36,30.30,10,10,10,14,8,18,0.00,6,,349
2013-11-12,45,38,31,41,38,30,96,86,76,30.37,30.32,30.27,10,9,5,10,4,18,T,7,Rain,200
2013-11-13,50,45,39,41,40,36,96,84,71,30.37,30.34,30.27,10,9,6,8,3,10,0.00,7,,235
2013-11-14,51,40,29,38,36,28,96,79,61,30.25,30.07,29.94,10,10,8,7,1,9,0.00,3,,267
2013-11-15,43,37,30,34,32,28,100,81,62,29.92,29.66,29.22,10,7,0,18,7,23,0.00,7,Fog,180
2013-11-16,48,37,26,33,28,22,85,64,42,29.68,29.40,29.19,10,10,10,17,6,22,0.00,5,,313
2013-11-17,45,32,19,34,27,17,92,75,57,29.90,29.81,29.69,10,10,10,13,5,17,T,5,,217
2013-11-18,49,38,27,40,33,25,92,81,70,29.86,29.75,29.56,10,10,10,21,5,26,0.00,6,,209
2013-11-19,57,44,30,40,30,12,83,51,18,30.01,29.62,29.48,10,10,10,28,13,38,0.00,3,,189
2013-11-20,32,26,19,10,4,0,62,44,26,30.58,30.37,30.06,10,10,10,24,12,33,0.00,0,,353
2013-11-21,32,24,15,10,8,6,80,58,36,30.79,30.71,30.59,10,10,10,13,5,15,0.00,0,,349
2013-11-22,35,23,11,16,13,8,84,64,44,30.88,30.81,30.74,10,10,10,12,5,14,0.00,0,,356
2013-11-23,32,21,9,17,13,7,88,69,49,30.73,30.59,30.43,10,10,10,8,2,9,0.00,0,,300
2013-11-24,36,25,13,20,16,11,88,68,47,30.47,30.42,30.38,10,10,10,8,2,9,0.00,0,,317
2013-11-25,37,28,19,22,19,15,84,68,52,30.53,30.49,30.47,10,10,8,7,2,7,0.00,0,,297
2013-11-26,35,26,17,23,19,14,91,75,59,30.45,30.35,30.28,10,10,10,6,1,7,0.00,0,,222
2013-11-27,41,29,17,25,21,17,92,73,54,30.30,30.25,30.19,10,9,5,7,2,8,0.00,2,,344
2013-11-28,28,21,14,25,22,12,92,88,84,30.29,30.24,30.18,10,4,0,7,1,8,0.00,6,Fog,195
2013-11-29,32,29,26,28,26,22,92,85,78,30.35,30.29,30.24,6,2,0,6,1,7,0.00,8,Fog,183
2013-11-30,35,33,30,31,30,28,92,87,82,30.36,30.30,30.19,6,4,2,8,3,13,T,8,,186